TFM - Tactical Decision Aid
ID: Runway Winds: CIG/VIS Threshold:

KHBG - Hattiesburg/Chain Mu, MS, US

Updated at: 1336 UTC 10 Jul 2020
Latest TAF at: 1120 UTC 10 Jul 2020

TAF Board

Time1253Z 10/14Z 10/15Z 10/16Z 10/17Z 10/18Z 10/19Z 10/20Z 10/21Z 10/22Z 10/23Z 11/00Z 11/01Z 11/02Z>>
Type OBS PRVL PRVL PRVL PRVL PRVL PRVL PRVL PRVL PRVL PRVL PRVL PRVL PRVL
VIS 10 >6 >6 >6 >6 >6 >6 >6 >6 >6 >6 >6 >6 >6
CIG -- 40 40 40 40 40 40 40 40 -- -- -- -- --
Cover SCT BKN BKN BKN BKN BKN BKN BKN BKN SCT SCT SCT SCT SCT
FltCat VFR VFR VFR VFR VFR VFR VFR VFR VFR VFR VFR VFR VFR VFR
WX -- VCSH VCSH VCSH VCSH VCTS VCTS VCTS VCTS -- -- -- -- --
WDir 260 260 260 260 260 300 300 300 300 310 310 310 310 310
WSpd 5 5 5 5 5 7 7 7 7 8 8 8 8 8
WGst -- -- -- -- -- -- -- -- -- -- -- -- -- --

TDA Impact Legend

  None Marginal Slight Moderate High
Visibility (sm) >5 3≤X≤5 2≤X<3 0.75≤X<2 <0.75
Ceiling (100 ft) >30 10≤X≤30 8≤X<10 2≤X<8 <2
Wind Speed (kt) <15 15≤X<25 25≤X<30 ≥30
Wind Gust (kt) <15 15≤X<25 25≤X<35 ≥35
Weather No Wx Reported VCTS -TS,-FZRA TS,FZRA +TS,+FZRA
TAF
KHBG 101120Z 1012/1112 26005KT P6SM VCSH BKN040
  FM101800 30007KT P6SM VCTS BKN040CB
  FM102200 31008KT P6SM SCT050


METAR
KHBG 101253Z AUTO 26005KT 10SM FEW055 SCT070 26/24 A3004 RMK AO2 LTG DSNT NE SLP168 T02610239
KHBG 101153Z AUTO 28004KT 8SM CLR 26/24 A3002 RMK AO2 SLP162 7//// T02560239 10267 20244 51012
KHBG 101053Z AUTO 26005KT 9SM SCT055 26/24 A3001 RMK AO2 SLP157 T02560239

Radar Display
Forecast Discussion